createdAt,value
2023-02-24T00:01:37.494Z,17.08
2023-02-24T00:03:46.036Z,12.38
2023-02-24T00:05:53.583Z,13.35
2023-02-24T00:07:58.649Z,18.40
2023-02-24T00:10:03.760Z,12.32
2023-02-24T00:12:12.015Z,9.15
2023-02-24T00:14:19.214Z,15.10
2023-02-24T00:16:25.748Z,11.30
2023-02-24T00:18:32.604Z,15.15
2023-02-24T00:20:39.999Z,10.15
2023-02-24T00:22:45.877Z,15.13
2023-02-24T00:24:53.430Z,16.10
2023-02-24T00:27:00.093Z,14.68
2023-02-24T00:29:08.486Z,13.77
2023-02-24T00:31:15.965Z,13.52
2023-02-24T00:33:22.997Z,13.38
2023-02-24T00:35:29.628Z,13.63
2023-02-24T00:37:37.486Z,10.60
2023-02-24T00:39:45.790Z,10.73
2023-02-24T00:41:52.935Z,8.55
2023-02-24T00:43:59.162Z,15.20
2023-02-24T00:46:11.268Z,12.48
2023-02-24T00:48:17.786Z,11.93
2023-02-24T00:50:25.259Z,11.68
2023-02-24T00:52:32.890Z,9.57
2023-02-24T00:54:44.942Z,12.65
2023-02-24T00:56:51.862Z,13.02
2023-02-24T00:58:57.799Z,13.55
2023-02-24T01:01:03.304Z,14.27
2023-02-24T01:03:09.060Z,14.32
2023-02-24T01:05:15.144Z,12.70
2023-02-24T01:07:19.988Z,15.13
2023-02-24T01:09:27.464Z,9.38
2023-02-24T01:11:49.929Z,8.93
2023-02-24T01:13:54.801Z,13.57
2023-02-24T01:16:02.746Z,12.52
2023-02-24T01:18:07.835Z,11.77
2023-02-24T01:20:19.270Z,10.45
2023-02-24T01:22:24.654Z,12.52
2023-02-24T01:24:31.429Z,10.20
2023-02-24T01:26:41.598Z,9.30
2023-02-24T01:28:46.630Z,7.88
2023-02-24T01:30:51.570Z,7.78
2023-02-24T01:32:57.701Z,15.20
2023-02-24T01:35:02.439Z,8.98
2023-02-24T01:37:07.701Z,11.27
2023-02-24T01:39:13.752Z,9.70
2023-02-24T01:41:22.086Z,8.10
2023-02-24T01:43:30.922Z,13.50
2023-02-24T01:45:37.003Z,11.40
2023-02-24T01:47:41.049Z,13.77
2023-02-24T01:49:48.293Z,12.65
2023-02-24T01:51:57.562Z,9.80
2023-02-24T01:54:06.104Z,10.52
2023-02-24T01:56:16.090Z,8.20
2023-02-24T01:58:26.860Z,7.55
2023-02-24T02:00:38.229Z,5.95
2023-02-24T02:02:46.902Z,9.73
2023-02-24T02:04:58.262Z,8.98
2023-02-24T02:07:04.474Z,11.55
2023-02-24T02:09:10.548Z,12.45
2023-02-24T02:11:23.254Z,14.25
2023-02-24T02:13:31.320Z,16.85
2023-02-24T02:15:49.757Z,14.18
2023-02-24T02:18:03.292Z,11.57
2023-02-24T02:20:31.626Z,9.35
2023-02-24T02:23:08.958Z,10.80
2023-02-24T02:25:21.135Z,8.52
2023-02-24T02:28:02.909Z,8.68
2023-02-24T02:30:43.945Z,7.07
2023-02-24T02:33:15.944Z,12.15
2023-02-24T02:35:29.543Z,10.30
2023-02-24T02:37:41.325Z,7.45
2023-02-24T02:39:59.011Z,9.02
2023-02-24T02:42:17.040Z,11.10
2023-02-24T02:44:28.599Z,11.15
2023-02-24T02:46:40.272Z,15.20
2023-02-24T02:48:52.308Z,5.57
2023-02-24T02:51:08.981Z,7.50
2023-02-24T02:53:18.878Z,8.00
2023-02-24T02:55:33.059Z,5.18
2023-02-24T02:57:41.213Z,7.93
2023-02-24T02:59:54.349Z,6.07
2023-02-24T03:04:23.003Z,3.22
2023-02-24T03:06:34.724Z,2.55
2023-02-24T03:08:44.061Z,6.40
2023-02-24T03:10:54.075Z,6.78
2023-02-24T03:13:02.393Z,9.48
2023-02-24T03:15:12.491Z,7.10
2023-02-24T03:17:21.990Z,6.15
2023-02-24T03:19:33.439Z,7.20
2023-02-24T03:21:48.014Z,6.07
2023-02-24T03:23:54.000Z,8.95
2023-02-24T03:26:08.905Z,10.45
2023-02-24T03:28:19.377Z,8.45
2023-02-24T03:30:30.142Z,17.17
2023-02-24T03:32:44.284Z,4.40
2023-02-24T03:34:55.340Z,7.40
2023-02-24T03:37:03.104Z,5.80
2023-02-24T03:39:11.585Z,9.70
2023-02-24T03:41:17.487Z,2.08
2023-02-24T03:43:28.272Z,7.10
2023-02-24T03:45:35.208Z,9.20
2023-02-24T03:47:40.837Z,5.75
2023-02-24T03:49:49.576Z,3.67
2023-02-24T03:52:12.641Z,12.80
2023-02-24T03:54:31.308Z,11.25
2023-02-24T03:56:48.649Z,4.15
2023-02-24T03:59:12.979Z,6.75
2023-02-24T04:01:25.619Z,5.90
2023-02-24T04:03:36.602Z,7.28
2023-02-24T04:05:53.246Z,6.82
2023-02-24T04:08:04.630Z,5.35
2023-02-24T04:10:18.614Z,5.28
2023-02-24T04:12:31.780Z,4.45
2023-02-24T04:14:42.680Z,8.75
2023-02-24T04:16:57.524Z,7.00
2023-02-24T04:19:07.678Z,3.58
2023-02-24T04:21:13.364Z,5.43
2023-02-24T04:23:24.838Z,6.22
2023-02-24T04:25:31.242Z,4.22
2023-02-24T04:27:38.860Z,7.05
2023-02-24T04:29:48.365Z,1.92
2023-02-24T04:31:58.210Z,20.00
2023-02-24T04:34:07.469Z,7.90
2023-02-24T04:36:13.898Z,8.15
2023-02-24T04:38:21.762Z,6.00
2023-02-24T04:40:26.760Z,9.55
2023-02-24T04:42:31.527Z,8.82
2023-02-24T04:44:36.838Z,7.15
2023-02-24T04:46:41.734Z,7.50
2023-02-24T04:48:46.595Z,5.60
2023-02-24T04:50:55.451Z,5.43
2023-02-24T04:53:03.959Z,5.50
2023-02-24T04:55:13.573Z,7.68
2023-02-24T04:57:19.717Z,4.50
2023-02-24T04:59:25.572Z,6.38
2023-02-24T05:01:31.490Z,4.15
2023-02-24T05:03:36.449Z,5.38
2023-02-24T05:05:43.040Z,7.80
2023-02-24T05:07:49.260Z,5.72
2023-02-24T05:09:55.152Z,5.25
2023-02-24T05:12:02.884Z,3.50
2023-02-24T05:14:08.317Z,6.50
2023-02-24T05:16:17.038Z,4.70
2023-02-24T05:18:24.063Z,6.15
2023-02-24T05:20:42.014Z,7.55
2023-02-24T05:22:51.866Z,8.82
2023-02-24T05:24:57.504Z,7.55
2023-02-24T05:27:05.320Z,10.13
2023-02-24T05:29:11.118Z,8.00
2023-02-24T05:31:18.400Z,3.17
2023-02-24T05:33:24.123Z,8.18
2023-02-24T05:35:29.971Z,6.38
2023-02-24T05:37:35.222Z,7.70
2023-02-24T05:39:43.725Z,7.25
2023-02-24T05:41:54.903Z,6.97
2023-02-24T05:44:05.004Z,4.38
2023-02-24T05:46:10.547Z,5.03
2023-02-24T05:48:16.257Z,10.98
2023-02-24T05:50:26.707Z,5.13
2023-02-24T05:52:31.862Z,6.32
2023-02-24T05:54:41.581Z,8.82
2023-02-24T05:56:46.669Z,7.50
2023-02-24T05:59:02.132Z,9.52
2023-02-24T06:01:19.497Z,5.65
2023-02-24T06:03:31.124Z,10.15
2023-02-24T06:05:39.834Z,6.05
2023-02-24T06:07:50.374Z,9.65
2023-02-24T06:09:57.728Z,4.13
2023-02-24T06:12:06.963Z,8.45
2023-02-24T06:14:13.890Z,8.43
2023-02-24T06:16:22.134Z,8.13
2023-02-24T06:18:26.933Z,8.60
2023-02-24T06:20:36.131Z,12.77
2023-02-24T06:22:42.587Z,7.50
2023-02-24T06:24:49.496Z,12.77
2023-02-24T06:26:56.497Z,12.35
2023-02-24T06:29:04.558Z,6.18
2023-02-24T06:31:11.035Z,11.93
2023-02-24T06:33:18.724Z,11.02
2023-02-24T06:35:24.028Z,7.38
2023-02-24T06:37:30.086Z,4.78
2023-02-24T06:39:36.887Z,7.90
2023-02-24T06:41:43.145Z,5.82
2023-02-24T06:43:49.083Z,10.90
2023-02-24T06:45:55.287Z,7.88
2023-02-24T06:48:00.552Z,7.05
2023-02-24T06:50:10.089Z,8.82
2023-02-24T06:52:19.629Z,6.63
2023-02-24T06:54:25.953Z,9.13
2023-02-24T06:56:32.439Z,9.13
2023-02-24T06:58:42.485Z,9.68
2023-02-24T07:00:56.901Z,5.97
2023-02-24T07:03:14.989Z,8.27
2023-02-24T07:05:24.384Z,11.23
2023-02-24T07:07:29.845Z,12.45
2023-02-24T07:09:36.966Z,9.50
2023-02-24T07:11:47.252Z,11.88
2023-02-24T07:13:54.687Z,8.45
2023-02-24T07:16:07.231Z,10.25
2023-02-24T07:18:15.008Z,11.57
2023-02-24T07:20:26.316Z,10.60
2023-02-24T07:22:31.996Z,9.60
2023-02-24T07:24:40.906Z,7.47
2023-02-24T07:26:54.241Z,12.32
2023-02-24T07:29:04.606Z,12.52
2023-02-24T07:31:13.111Z,11.60
2023-02-24T07:33:19.494Z,5.07
2023-02-24T07:35:27.306Z,14.80
2023-02-24T07:37:32.095Z,11.52
2023-02-24T07:39:37.342Z,7.70
2023-02-24T07:41:49.405Z,17.58
2023-02-24T07:43:54.823Z,16.13
2023-02-24T07:46:00.811Z,11.88
2023-02-24T07:48:05.596Z,7.47
2023-02-24T07:50:18.501Z,7.22
2023-02-24T07:52:27.687Z,8.52
2023-02-24T07:54:34.219Z,5.97
2023-02-24T07:56:56.803Z,16.42
2023-02-24T07:59:08.136Z,10.43
2023-02-24T08:01:23.335Z,6.30
2023-02-24T08:03:33.306Z,10.05
2023-02-24T08:05:51.114Z,11.18
2023-02-24T08:08:02.494Z,9.30
2023-02-24T08:10:24.593Z,8.10
2023-02-24T08:12:31.077Z,12.90
2023-02-24T08:14:47.051Z,9.45
2023-02-24T08:16:53.556Z,12.77
2023-02-24T08:18:59.418Z,15.80
2023-02-24T08:21:04.980Z,10.52
2023-02-24T08:23:18.795Z,12.30
2023-02-24T08:25:35.957Z,9.07
2023-02-24T08:27:53.119Z,14.27
2023-02-24T08:30:08.026Z,10.52
2023-02-24T08:32:20.331Z,9.90
2023-02-24T08:34:31.796Z,10.98
2023-02-24T08:36:37.049Z,10.25
2023-02-24T08:38:52.249Z,11.60
2023-02-24T08:41:05.023Z,14.25
2023-02-24T08:43:19.834Z,7.53
2023-02-24T08:45:24.826Z,10.40
2023-02-24T08:47:31.683Z,12.25
2023-02-24T08:49:40.301Z,8.60
2023-02-24T08:51:48.948Z,13.50
2023-02-24T08:54:02.876Z,13.60
2023-02-24T08:56:09.957Z,5.55
2023-02-24T08:58:20.504Z,10.68
2023-02-24T09:00:46.255Z,8.70
2023-02-24T09:02:57.463Z,8.82
2023-02-24T09:05:05.717Z,11.65
2023-02-24T09:07:16.451Z,13.00
2023-02-24T09:09:24.673Z,9.98
2023-02-24T09:11:29.710Z,10.45
2023-02-24T09:13:41.008Z,10.20
2023-02-24T09:15:48.840Z,12.57
2023-02-24T09:18:10.339Z,12.15
2023-02-24T09:20:32.779Z,7.07
2023-02-24T09:22:59.637Z,17.02
2023-02-24T09:25:22.901Z,7.63
2023-02-24T09:27:29.581Z,12.63
2023-02-24T09:29:49.379Z,14.60
2023-02-24T09:32:05.605Z,12.40
2023-02-24T09:34:18.828Z,12.98
2023-02-24T09:38:47.772Z,13.13
2023-02-24T09:40:55.074Z,11.90
2023-02-24T09:43:00.293Z,8.70
2023-02-24T09:45:11.618Z,14.90
2023-02-24T09:47:31.598Z,13.15
2023-02-24T09:49:48.997Z,16.33
2023-02-24T09:52:00.776Z,12.93
2023-02-24T09:54:07.717Z,11.80
2023-02-24T09:56:25.857Z,15.85
2023-02-24T09:58:44.269Z,15.05
2023-02-24T10:00:57.556Z,13.70
2023-02-24T10:03:19.949Z,11.82
2023-02-24T10:05:38.899Z,14.40
2023-02-24T10:07:47.952Z,17.75
2023-02-24T10:09:58.146Z,21.40
2023-02-24T10:12:18.297Z,13.65
2023-02-24T10:14:42.809Z,13.70
2023-02-24T10:17:12.431Z,13.65
2023-02-24T10:19:30.479Z,15.65
2023-02-24T10:22:00.621Z,17.85
2023-02-24T10:24:23.034Z,20.65
2023-02-24T10:26:59.527Z,15.85
2023-02-24T10:29:23.997Z,18.77
2023-02-24T10:33:49.942Z,17.77
2023-02-24T10:36:00.441Z,15.98
2023-02-24T10:38:07.336Z,17.20
2023-02-24T10:40:17.501Z,20.50
2023-02-24T10:42:31.822Z,20.30
2023-02-24T10:44:39.722Z,18.27
2023-02-24T10:46:47.321Z,23.10
2023-02-24T10:49:00.770Z,20.17
2023-02-24T10:53:35.104Z,17.43
2023-02-24T10:56:15.333Z,22.92
2023-02-24T10:58:39.455Z,19.25
2023-02-24T11:01:01.309Z,21.35
2023-02-24T11:03:32.715Z,19.85
2023-02-24T11:06:07.036Z,16.92
2023-02-24T11:08:44.346Z,15.90
2023-02-24T11:11:07.344Z,18.83
2023-02-24T11:13:32.459Z,19.83
2023-02-24T11:15:53.416Z,19.10
2023-02-24T11:18:05.982Z,22.35
2023-02-24T11:20:36.259Z,18.50
2023-02-24T11:22:52.176Z,20.95
2023-02-24T11:25:07.050Z,18.48
2023-02-24T11:27:15.310Z,16.88
2023-02-24T11:29:51.292Z,15.68
2023-02-24T11:32:15.218Z,20.63
2023-02-24T11:34:32.333Z,23.00
2023-02-24T11:36:56.546Z,17.77
2023-02-24T11:39:20.077Z,17.08
2023-02-24T11:41:32.806Z,16.60
2023-02-24T11:43:42.674Z,18.63
2023-02-24T11:45:51.422Z,16.58
2023-02-24T11:47:59.624Z,20.55
2023-02-24T11:50:25.589Z,15.93
2023-02-24T11:52:39.425Z,17.77
2023-02-24T11:54:49.049Z,23.75
2023-02-24T11:57:00.306Z,19.63
2023-02-24T11:59:12.453Z,26.80
2023-02-24T12:01:24.356Z,24.02
2023-02-24T12:03:38.754Z,27.75
2023-02-24T12:05:56.490Z,30.85
2023-02-24T12:08:07.259Z,29.10
2023-02-24T12:10:23.195Z,24.80
2023-02-24T12:12:33.944Z,29.13
2023-02-24T12:14:48.458Z,32.15
2023-02-24T12:17:04.253Z,19.95
2023-02-24T12:19:23.817Z,19.55
2023-02-24T12:21:39.604Z,20.27
2023-02-24T12:23:50.715Z,22.58
2023-02-24T12:26:13.152Z,15.95
2023-02-24T12:28:33.602Z,21.98
2023-02-24T12:31:30.630Z,16.92
2023-02-24T12:33:49.482Z,21.98
2023-02-24T12:36:08.342Z,18.98
2023-02-24T12:38:30.393Z,15.50
2023-02-24T12:40:49.359Z,16.83
2023-02-24T12:46:20.050Z,17.35
2023-02-24T12:48:56.428Z,21.45
2023-02-24T12:51:13.500Z,19.92
2023-02-24T12:53:31.532Z,15.20
2023-02-24T12:55:48.373Z,20.23
2023-02-24T12:58:05.250Z,25.35
2023-02-24T13:00:17.117Z,21.08
2023-02-24T13:02:37.727Z,16.50
2023-02-24T13:05:05.494Z,24.80
2023-02-24T13:07:22.737Z,22.42
2023-02-24T13:09:45.980Z,24.35
2023-02-24T13:12:01.938Z,14.07
2023-02-24T13:14:18.272Z,18.50
2023-02-24T13:16:33.270Z,18.55
2023-02-24T13:18:41.492Z,33.67
2023-02-24T13:20:47.611Z,24.15
2023-02-24T13:23:01.152Z,16.50
2023-02-24T13:25:24.920Z,21.23
2023-02-24T13:27:31.884Z,17.77
2023-02-24T13:29:49.126Z,19.08
2023-02-24T13:31:56.364Z,19.33
2023-02-24T13:34:03.414Z,23.67
2023-02-24T13:36:24.893Z,11.73
2023-02-24T13:38:39.611Z,20.00
2023-02-24T13:40:52.371Z,12.55
2023-02-24T13:43:04.925Z,14.70
2023-02-24T13:45:24.034Z,26.67
2023-02-24T13:47:52.434Z,27.10
2023-02-24T13:50:10.108Z,20.10
2023-02-24T13:52:28.999Z,11.07
2023-02-24T13:54:52.980Z,14.32
2023-02-24T13:57:07.336Z,22.27
2023-02-24T13:59:29.658Z,17.77
2023-02-24T14:01:47.808Z,14.57
2023-02-24T14:04:09.659Z,13.52
2023-02-24T14:06:23.581Z,14.57
2023-02-24T14:08:45.314Z,9.18
2023-02-24T14:10:55.571Z,13.30
2023-02-24T14:13:08.292Z,9.50
2023-02-24T14:15:19.251Z,15.02
2023-02-24T14:17:28.805Z,15.10
2023-02-24T14:19:33.997Z,14.07
2023-02-24T14:21:38.747Z,12.35
2023-02-24T14:23:44.278Z,10.65
2023-02-24T14:25:55.544Z,15.20
2023-02-24T14:28:00.872Z,14.85
2023-02-24T14:30:10.039Z,19.73
2023-02-24T14:32:23.917Z,17.42
2023-02-24T14:34:31.571Z,19.42
2023-02-24T14:36:40.992Z,20.23
2023-02-24T14:38:48.071Z,12.65
2023-02-24T14:40:52.804Z,14.65
2023-02-24T14:43:00.395Z,18.65
2023-02-24T14:45:05.140Z,19.85
2023-02-24T14:47:17.851Z,6.53
2023-02-24T14:49:28.217Z,11.18
2023-02-24T14:51:37.103Z,7.65
2023-02-24T14:53:49.020Z,5.25
2023-02-24T14:55:57.963Z,7.15
2023-02-24T14:58:09.098Z,8.45
2023-02-24T15:00:24.238Z,4.63
2023-02-24T15:02:36.364Z,7.90
2023-02-24T15:04:49.984Z,8.63
2023-02-24T15:06:55.305Z,5.45
2023-02-24T15:09:03.450Z,7.43
2023-02-24T15:11:24.044Z,9.27
2023-02-24T15:13:33.475Z,8.70
2023-02-24T15:15:42.771Z,9.95
2023-02-24T15:17:54.452Z,12.40
2023-02-24T15:19:59.502Z,14.52
2023-02-24T15:22:04.561Z,8.65
2023-02-24T15:24:21.531Z,7.40
2023-02-24T15:26:32.708Z,8.88
2023-02-24T15:28:39.490Z,3.67
2023-02-24T15:31:01.611Z,12.40
2023-02-24T15:33:13.546Z,7.13
2023-02-24T15:35:25.571Z,10.73
2023-02-24T15:37:32.825Z,9.80
2023-02-24T15:39:38.590Z,11.38
2023-02-24T15:41:48.375Z,4.47
2023-02-24T15:43:56.529Z,6.38
2023-02-24T15:46:01.547Z,12.50
2023-02-24T15:48:23.094Z,6.55
2023-02-24T15:50:28.620Z,3.67
2023-02-24T15:52:33.624Z,10.65
2023-02-24T15:54:42.504Z,10.63
2023-02-24T15:56:51.709Z,11.57
2023-02-24T15:58:56.649Z,11.65
2023-02-24T16:01:01.800Z,8.98
2023-02-24T16:03:09.372Z,6.50
2023-02-24T16:05:16.952Z,7.22
2023-02-24T16:07:24.480Z,5.95
2023-02-24T16:09:37.929Z,7.20
2023-02-24T16:11:47.106Z,6.90
2023-02-24T16:13:55.664Z,5.95
2023-02-24T16:16:00.699Z,12.70
2023-02-24T16:18:05.498Z,8.13
2023-02-24T16:20:16.911Z,11.07
2023-02-24T16:22:21.806Z,6.55
2023-02-24T16:24:26.769Z,9.02
2023-02-24T16:26:31.769Z,13.80
2023-02-24T16:28:37.008Z,10.05
2023-02-24T16:30:45.196Z,10.43
2023-02-24T16:32:50.271Z,9.38
2023-02-24T16:34:55.318Z,4.63
2023-02-24T16:37:02.646Z,16.38
2023-02-24T16:39:08.352Z,9.40
2023-02-24T16:41:18.229Z,13.55
2023-02-24T16:43:24.777Z,11.70
2023-02-24T16:45:36.047Z,14.02
2023-02-24T16:47:45.137Z,11.27
2023-02-24T16:49:51.021Z,7.72
2023-02-24T16:52:00.445Z,5.57
2023-02-24T16:54:09.028Z,5.32
2023-02-24T16:56:18.836Z,14.90
2023-02-24T16:58:23.755Z,3.58
2023-02-24T17:00:28.951Z,7.28
2023-02-24T17:02:34.158Z,5.68
2023-02-24T17:04:39.074Z,8.05
2023-02-24T17:06:43.935Z,7.45
2023-02-24T17:08:49.753Z,8.23
2023-02-24T17:10:57.586Z,6.80
2023-02-24T17:13:02.537Z,7.05
2023-02-24T17:15:10.239Z,12.93
2023-02-24T17:17:15.253Z,11.05
2023-02-24T17:19:20.375Z,18.77
2023-02-24T17:21:25.468Z,9.35
2023-02-24T17:23:30.309Z,16.27
2023-02-24T17:25:36.953Z,14.63
2023-02-24T17:27:44.525Z,18.15
2023-02-24T17:29:50.588Z,16.27
2023-02-24T17:31:56.119Z,13.75
2023-02-24T17:34:02.003Z,8.30
2023-02-24T17:36:07.919Z,16.13
2023-02-24T17:38:18.956Z,15.60
2023-02-24T17:40:32.506Z,21.30
2023-02-24T17:42:37.573Z,16.67
2023-02-24T17:44:48.355Z,13.40
2023-02-24T17:47:01.441Z,13.95
2023-02-24T17:51:15.478Z,11.38
2023-02-24T17:53:21.974Z,15.30
2023-02-24T17:55:29.743Z,12.45
2023-02-24T17:57:40.007Z,11.38
2023-02-24T17:59:52.101Z,8.90
2023-02-24T18:01:58.500Z,8.60
2023-02-24T18:04:06.361Z,9.55
2023-02-24T18:06:14.315Z,5.38
2023-02-24T18:08:22.737Z,9.32
2023-02-24T18:10:31.109Z,11.15
2023-02-24T18:12:36.370Z,11.25
2023-02-24T18:14:56.113Z,10.63
2023-02-24T18:17:09.950Z,8.02
2023-02-24T18:19:16.357Z,10.98
2023-02-24T18:21:22.766Z,12.80
2023-02-24T18:23:30.156Z,16.80
2023-02-24T18:25:37.264Z,10.20
2023-02-24T18:27:44.626Z,11.32
2023-02-24T18:29:52.215Z,10.60
2023-02-24T18:31:57.809Z,13.20
2023-02-24T18:34:08.613Z,8.00
2023-02-24T18:36:14.393Z,14.70
2023-02-24T18:38:22.489Z,9.35
2023-02-24T18:40:32.741Z,14.88
2023-02-24T18:42:40.136Z,12.15
2023-02-24T18:44:51.680Z,12.73
2023-02-24T18:47:01.282Z,16.92
2023-02-24T18:49:14.174Z,21.48
2023-02-24T18:51:21.889Z,19.95
2023-02-24T18:53:30.231Z,7.95
2023-02-24T18:55:40.066Z,11.82
2023-02-24T18:57:47.862Z,21.65
2023-02-24T18:59:58.471Z,13.13
2023-02-24T19:02:04.585Z,10.48
2023-02-24T19:04:12.363Z,10.27
2023-02-24T19:06:19.251Z,13.38
2023-02-24T19:08:24.892Z,26.77
2023-02-24T19:10:31.468Z,15.40
2023-02-24T19:12:39.476Z,12.43
2023-02-24T19:14:44.225Z,16.50
2023-02-24T19:16:50.377Z,11.13
2023-02-24T19:18:56.644Z,10.07
2023-02-24T19:21:04.502Z,13.55
2023-02-24T19:23:12.976Z,17.13
2023-02-24T19:25:20.954Z,11.18
2023-02-24T19:27:29.632Z,13.85
2023-02-24T19:29:34.493Z,10.38
2023-02-24T19:31:43.797Z,24.98
2023-02-24T19:33:52.533Z,14.75
2023-02-24T19:36:03.574Z,11.73
2023-02-24T19:38:08.295Z,23.92
2023-02-24T19:40:17.971Z,12.85
2023-02-24T19:42:22.962Z,19.73
2023-02-24T19:44:27.730Z,10.38
2023-02-24T19:46:34.372Z,7.88
2023-02-24T19:48:39.417Z,14.27
2023-02-24T19:50:46.592Z,11.32
2023-02-24T19:52:54.397Z,10.60
2023-02-24T19:54:59.225Z,8.82
2023-02-24T19:57:04.992Z,13.27
2023-02-24T19:59:11.212Z,14.38
2023-02-24T20:01:17.326Z,14.70
2023-02-24T20:03:28.664Z,10.45
2023-02-24T20:05:39.024Z,14.82
2023-02-24T20:07:46.420Z,10.77
2023-02-24T20:09:55.003Z,26.80
2023-02-24T20:12:01.997Z,15.48
2023-02-24T20:14:07.974Z,17.55
2023-02-24T20:16:16.725Z,14.00
2023-02-24T20:18:24.740Z,10.25
2023-02-24T20:20:32.293Z,17.90
2023-02-24T20:22:37.191Z,17.20
2023-02-24T20:24:43.615Z,15.38
2023-02-24T20:26:51.669Z,10.13
2023-02-24T20:28:56.983Z,9.95
2023-02-24T20:31:09.977Z,8.57
2023-02-24T20:33:14.865Z,15.07
2023-02-24T20:35:21.148Z,13.77
2023-02-24T20:37:28.583Z,13.90
2023-02-24T20:39:34.247Z,10.25
2023-02-24T20:41:39.164Z,12.45
2023-02-24T20:43:47.376Z,4.13
2023-02-24T20:45:52.978Z,8.70
2023-02-24T20:47:58.867Z,8.98
2023-02-24T20:50:07.305Z,15.70
2023-02-24T20:52:12.879Z,11.68
2023-02-24T20:54:18.511Z,4.80
2023-02-24T20:56:23.815Z,9.15
2023-02-24T20:58:29.630Z,16.63
2023-02-24T21:00:38.784Z,6.90
2023-02-24T21:02:46.197Z,7.22
2023-02-24T21:04:53.466Z,4.97
2023-02-24T21:06:59.947Z,6.28
2023-02-24T21:09:05.189Z,9.57
2023-02-24T21:11:11.261Z,4.13
2023-02-24T21:13:16.570Z,6.97
2023-02-24T21:15:22.095Z,7.90
2023-02-24T21:17:30.667Z,7.88
2023-02-24T21:19:35.586Z,8.00
2023-02-24T21:21:40.384Z,8.27
2023-02-24T21:23:47.160Z,9.52
2023-02-24T21:25:54.096Z,4.88
2023-02-24T21:27:58.843Z,10.05
2023-02-24T21:30:05.402Z,7.00
2023-02-24T21:32:13.425Z,7.22
2023-02-24T21:34:22.338Z,5.38
2023-02-24T21:36:28.419Z,8.88
2023-02-24T21:38:34.588Z,10.13
2023-02-24T21:40:45.425Z,19.92
2023-02-24T21:42:50.560Z,11.52
2023-02-24T21:44:58.861Z,10.68
2023-02-24T21:47:03.616Z,10.75
2023-02-24T21:49:08.562Z,9.68
2023-02-24T21:51:16.525Z,13.82
2023-02-24T21:53:21.309Z,6.97
2023-02-24T21:55:30.080Z,23.48
2023-02-24T21:57:35.732Z,8.35
2023-02-24T21:59:40.471Z,14.30
2023-02-24T22:01:48.117Z,9.73
2023-02-24T22:03:56.451Z,13.05
2023-02-24T22:06:01.319Z,7.57
2023-02-24T22:08:08.991Z,14.40
2023-02-24T22:10:18.838Z,11.50
2023-02-24T22:12:24.143Z,7.18
2023-02-24T22:14:29.585Z,11.57
2023-02-24T22:16:34.384Z,9.80
2023-02-24T22:18:39.618Z,16.67
2023-02-24T22:20:45.954Z,15.77
2023-02-24T22:22:51.291Z,6.80
2023-02-24T22:25:01.367Z,10.85
2023-02-24T22:27:07.256Z,14.32
2023-02-24T22:29:12.400Z,15.48
2023-02-24T22:31:19.677Z,11.25
2023-02-24T22:33:24.601Z,17.67
2023-02-24T22:35:29.787Z,9.23
2023-02-24T22:37:36.019Z,7.28
2023-02-24T22:39:41.350Z,8.85
2023-02-24T22:41:53.174Z,9.30
2023-02-24T22:43:57.997Z,10.93
2023-02-24T22:46:05.225Z,9.93
2023-02-24T22:48:10.140Z,9.25
2023-02-24T22:50:16.329Z,6.32
2023-02-24T22:52:21.142Z,7.53
2023-02-24T22:54:27.930Z,4.53
2023-02-24T22:56:34.839Z,5.43
2023-02-24T22:58:45.783Z,3.13
2023-02-24T23:00:54.731Z,3.60
2023-02-24T23:03:02.430Z,12.07
2023-02-24T23:05:08.893Z,8.20
2023-02-24T23:07:13.960Z,12.32
2023-02-24T23:09:25.132Z,10.07
2023-02-24T23:11:40.973Z,8.60
2023-02-24T23:13:50.302Z,17.55
2023-02-24T23:15:55.216Z,10.02
2023-02-24T23:18:03.231Z,12.88
2023-02-24T23:20:12.890Z,13.25
2023-02-24T23:22:19.184Z,12.57
2023-02-24T23:24:25.842Z,7.70
2023-02-24T23:26:34.595Z,9.00
2023-02-24T23:28:39.706Z,11.27
2023-02-24T23:30:48.223Z,9.00
2023-02-24T23:32:54.337Z,10.45
2023-02-24T23:34:59.365Z,9.73
2023-02-24T23:37:04.158Z,10.50
2023-02-24T23:39:09.836Z,10.48
2023-02-24T23:41:15.523Z,11.02
2023-02-24T23:43:21.023Z,17.80
2023-02-24T23:45:25.873Z,14.07
2023-02-24T23:47:34.226Z,11.05
2023-02-24T23:49:47.848Z,6.13
2023-02-24T23:51:53.376Z,5.90
2023-02-24T23:53:58.113Z,8.45
2023-02-24T23:56:02.988Z,8.30
2023-02-24T23:58:08.540Z,14.43
